Hauptseite
METAR-TAF:

METAR-TAF

Flughäfen :

Flugplatz Schwäbisch Hall-Hessental (Adolf Würth Airport)

Schwäbisch Hall, Deutschland

Breite: 49-07-06N, Länge: 9-47-02E, Höhe: 398 m

Beobachtung

Neuester Wetterbericht von vor 19 Minuten, um 13:20 UTC
Wind 10 kt aus Nordwest, variierte zwischen West und Nord
Temperatur 28°C
Luftfeuchtigkeit 35%
Luftdruck 1015 hPa
Sichtweite 10 km oder mehr
keine Wolken unter 1500 m und keine Kumulonimbus oder Gewitterwolken

METAR: EDTY 171320Z 31010KT 270V360 CAVOK 28/11 Q1015

Zeit: 15:39 (13:39 UTC)

Prognose

Neuester Wetterbericht von vor 2 Stunden und 39 Minuten, um 11:00 UTC
Gültige Prognose vom 17 um 12 UTC bis 17 um 21 UTC
Wind 8 kt aus Nordwest
Sichtweite 10 km oder mehr
keine Wolken unter 1500 m und keine Kumulonimbus oder Gewitterwolken
Übergehend zu
vom 17 um 19 UTC bis 17 um 21 UTC
Wind 3 kt aus West/Südwest

TAF: EDTY 171100Z 1712/1721 31008KT CAVOK BECMG 1719/1721 25003KT

Wetterbeobachtungen und Prognosen von mehr als 4000 Flughäfen (METAR und TAF Bericht).

Die verfügbaren Stationen werden durch gelbe und rote Markierungen auf der Karte dargestellt.

Führen Sie die Maus auf sie, um den Namen der Station zu sehen.

Darauf klicken, um die Beobachtung von Wetterbeobachtungen und Prognosen zu sehen.

Um die Karte zu ändern : klicken Sie auf den grünen Tasten mit einem schwarzen Kreuz Zum Vergrößern, auf den grünen Button mit einem Gedankenstrich zu verkleinern, oder auf die grünen Pfeile für benachbarte Karten.


METAR-TAF: